Time;durP1;ratioP1;P1;durP2;ratioP2;P2;SDS_P1;SDS_P2;PMS_P1;PMS_P2;Temp;Humidity;BMP_temperature;BMP_pressure;BME280_temperature;BME280_humidity;BME280_pressure;Samples;Min_cycle;Max_cycle;Signal;HPM_P1;HPM_P2
2022/02/10 06:52:25;;;;;;;5.70;3.40;;;;;;;;;;6243891;23;20047;-92
2022/02/10 06:55:04;;;;;;;3.53;2.00;;;;;;;;;;6243857;23;20027;-93
2022/02/10 07:51:07;;;;;;;4.07;2.63;;;;;;;;;;6185863;22;21047;-92
2022/02/10 08:18:02;;;;;;;12.40;7.57;;;;;;;;;;6245776;23;20012;-95
2022/02/10 09:00:18;;;;;;;11.02;6.18;;;;;;;;;;6245056;23;20016;-93
2022/02/10 09:03:13;;;;;;;10.95;6.72;;;;;;;;;;6244992;22;20008;-93
2022/02/10 09:08:49;;;;;;;21.60;11.27;;;;;;;;;;6245963;23;20051;-93
2022/02/10 09:59:27;;;;;;;10.43;5.60;;;;;;;;;;6123474;23;20021;-92
2022/02/10 10:02:14;;;;;;;9.18;5.30;;;;;;;;;;6097906;23;20069;-93
2022/02/10 10:08:09;;;;;;;8.07;4.13;;;;;;;;;;6182196;23;20084;-93
2022/02/10 10:16:24;;;;;;;8.73;5.63;;;;;;;;;;6182140;23;20068;-93
2022/02/10 10:23:58;;;;;;;13.73;3.88;;;;;;;;;;6181201;23;20013;-94
2022/02/10 10:26:44;;;;;;;5.45;2.38;;;;;;;;;;6156973;23;20020;-94
2022/02/10 10:54:24;;;;;;;4.72;2.45;;;;;;;;;;6181613;23;20402;-90
2022/02/10 10:56:53;;;;;;;9.77;3.58;;;;;;;;;;6156724;23;20467;-92
2022/02/10 11:39:13;;;;;;;4.88;1.65;;;;;;;;;;6064327;23;20018;-93
2022/02/10 11:41:51;;;;;;;6.47;1.92;;;;;;;;;;6067317;23;20089;-94
2022/02/10 12:29:33;;;;;;;3.85;2.03;;;;;;;;;;6259057;23;20035;-95
2022/02/10 14:14:56;;;;;;;8.05;2.60;;;;;;;;;;6240070;23;20014;-82
2022/02/10 14:17:37;;;;;;;13.52;4.10;;;;;;;;;;6239282;23;20367;-83
2022/02/10 14:20:34;;;;;;;11.25;2.88;;;;;;;;;;6239652;23;20018;-83
2022/02/10 14:23:05;;;;;;;6.37;2.13;;;;;;;;;;6236532;22;20019;-83
2022/02/10 14:25:52;;;;;;;11.23;2.97;;;;;;;;;;6239871;23;20230;-82
2022/02/10 14:28:19;;;;;;;4.28;2.83;;;;;;;;;;6217435;23;20004;-92
2022/02/10 14:30:45;;;;;;;8.52;3.53;;;;;;;;;;6218010;23;20008;-90
2022/02/10 14:33:11;;;;;;;11.57;3.50;;;;;;;;;;6217761;23;20086;-91
2022/02/10 15:36:06;;;;;;;8.65;2.33;;;;;;;;;;6151403;23;20020;-95
2022/02/10 15:36:34;;;;;;;7.38;2.58;;;;;;;;;;6150963;23;20033;-92
2022/02/10 15:50:26;;;;;;;7.47;2.88;;;;;;;;;;6077117;23;20011;-95
2022/02/10 15:55:52;;;;;;;3.83;2.75;;;;;;;;;;6064076;23;20042;-92
2022/02/10 16:20:07;;;;;;;4.75;2.40;;;;;;;;;;6218377;22;20020;-95
2022/02/10 16:22:38;;;;;;;5.88;2.63;;;;;;;;;;6255190;23;20577;-90
2022/02/10 16:25:07;;;;;;;8.02;2.72;;;;;;;;;;6245515;23;20014;-91
2022/02/10 16:27:35;;;;;;;10.13;2.95;;;;;;;;;;6245177;23;20000;-93
2022/02/10 16:30:08;;;;;;;4.97;2.38;;;;;;;;;;6246854;23;20010;-96
2022/02/10 16:32:41;;;;;;;3.70;2.40;;;;;;;;;;6246231;23;20442;-95
2022/02/10 16:35:08;;;;;;;4.93;2.38;;;;;;;;;;6246442;23;20000;-92
2022/02/10 16:37:36;;;;;;;4.40;2.58;;;;;;;;;;6219567;23;20011;-92
2022/02/10 16:40:03;;;;;;;16.35;3.35;;;;;;;;;;6246368;23;20457;-92
2022/02/10 16:42:29;;;;;;;8.73;3.63;;;;;;;;;;6218412;23;20031;-94
2022/02/10 16:44:55;;;;;;;12.95;2.67;;;;;;;;;;6219281;23;20438;-92
2022/02/10 16:47:21;;;;;;;10.90;3.58;;;;;;;;;;6246117;23;20004;-91
2022/02/10 16:49:51;;;;;;;9.68;2.45;;;;;;;;;;6245420;23;20008;-93
2022/02/10 16:52:22;;;;;;;13.00;2.67;;;;;;;;;;6246017;23;20071;-93
2022/02/10 16:54:51;;;;;;;10.75;2.60;;;;;;;;;;6246041;23;20012;-92
2022/02/10 16:57:32;;;;;;;5.60;2.95;;;;;;;;;;6232337;23;19980;-93
2022/02/10 17:05:31;;;;;;;4.35;3.35;;;;;;;;;;6245525;23;20013;-93
2022/02/10 17:19:15;;;;;;;11.63;3.97;;;;;;;;;;6245375;23;20818;-92
2022/02/10 17:35:14;;;;;;;5.30;2.85;;;;;;;;;;6245172;23;20016;-91
2022/02/10 17:59:06;;;;;;;11.27;2.75;;;;;;;;;;6189757;22;20139;-96
2022/02/10 18:01:39;;;;;;;11.52;4.78;;;;;;;;;;6178506;23;20356;-94
2022/02/10 18:04:05;;;;;;;9.73;3.92;;;;;;;;;;6217426;23;20108;-93
2022/02/10 18:06:38;;;;;;;14.35;4.07;;;;;;;;;;6217091;23;20073;-93
2022/02/10 18:16:47;;;;;;;5.75;3.45;;;;;;;;;;6245166;23;20315;-90
2022/02/10 18:19:27;;;;;;;6.80;2.85;;;;;;;;;;6244159;23;19996;-91
2022/02/10 18:29:35;;;;;;;5.45;2.85;;;;;;;;;;6246379;23;20000;-94
2022/02/10 19:10:10;;;;;;;11.18;5.93;;;;;;;;;;6182366;23;20044;-95
2022/02/10 19:12:47;;;;;;;12.02;7.32;;;;;;;;;;6209648;23;20008;-93
2022/02/10 19:15:23;;;;;;;15.70;8.77;;;;;;;;;;6245162;23;20015;-94
2022/02/10 19:17:50;;;;;;;12.93;6.68;;;;;;;;;;6244829;23;20431;-95
2022/02/10 19:20:17;;;;;;;18.02;9.98;;;;;;;;;;6217806;23;20030;-93
2022/02/10 19:25:26;;;;;;;9.20;3.97;;;;;;;;;;6250630;22;20130;-95
2022/02/10 19:27:52;;;;;;;10.38;3.78;;;;;;;;;;6245774;23;20439;-93
2022/02/10 19:30:20;;;;;;;7.88;4.85;;;;;;;;;;6244265;23;20004;-92
2022/02/10 19:33:12;;;;;;;;;;;10.90;73.60;;;;;;6225598;23;20003;-96
2022/02/10 19:35:44;;;;;;;11.77;7.68;;;;;;;;;;6252054;23;19907;-95
2022/02/10 19:38:20;;;;;;;8.23;5.05;;;;;;;;;;6253702;23;20012;-94
2022/02/10 19:40:51;;;;;;;15.68;7.45;;;;;;;;;;6252582;23;20016;-95
2022/02/10 19:43:19;;;;;;;19.40;5.28;;;;;;;;;;6226737;23;20000;-94
2022/02/10 19:45:47;;;;;;;10.02;4.75;;;;;;;;;;6229557;23;20008;-95
2022/02/10 19:48:13;;;;;;;15.05;3.65;;;;;;;;;;6227137;23;20024;-95
2022/02/10 19:50:39;;;;;;;16.20;7.38;;;;;;;;;;6225204;23;20012;-94
2022/02/10 19:53:09;;;;;;;12.57;6.25;;;;;;;;;;6222178;23;19992;-93
2022/02/10 19:55:38;;;;;;;12.93;5.30;;;;;;;;;;6247351;23;20004;-95
2022/02/10 19:58:08;;;;;;;13.10;5.40;;;;;;;;;;6247576;23;20027;-94
2022/02/10 20:00:39;;;;;;;21.20;5.78;;;;;;;;;;6247038;23;20012;-94
2022/02/10 20:03:17;;;;;;;13.48;7.45;;;;;;;;;;6246958;23;20000;-96
2022/02/10 20:05:48;;;;;;;21.48;8.93;;;;;;;;;;6246998;23;20004;-95
2022/02/10 20:08:16;;;;;;;22.98;10.85;;;;;;;;;;6220137;23;20000;-95
2022/02/10 20:10:42;;;;;;;9.18;6.35;;;;;;;;;;6246868;23;20490;-95
2022/02/10 20:13:10;;;;;;;16.98;6.90;;;;;;;;;;6247188;23;20007;-94
2022/02/10 20:15:36;;;;;;;12.20;5.65;;;;;;;;;;6246501;23;20038;-96
2022/02/10 20:18:05;;;;;;;13.10;5.82;;;;;;;;;;6220948;23;20005;-93
2022/02/10 20:20:31;;;;;;;12.27;6.75;;;;;;;;;;6246549;23;20015;-94
2022/02/10 20:22:57;;;;;;;10.80;7.35;;;;;;;;;;6219501;23;20043;-95
2022/02/10 20:25:24;;;;;;;14.13;7.15;;;;;;;;;;6246006;23;20039;-95
2022/02/10 20:27:50;;;;;;;26.33;11.10;;;;;;;;;;6246870;23;20486;-94
2022/02/10 20:30:16;;;;;;;25.45;12.88;;;;;;;;;;6220004;23;20022;-91
2022/02/10 20:32:42;;;;;;;18.23;8.63;;;;;;;;;;6245634;23;20000;-91
2022/02/10 20:35:10;;;;;;;27.38;9.95;;;;;;;;;;6222229;23;20004;-94
2022/02/10 20:37:38;;;;;;;18.63;7.80;;;;;;;;;;6252681;23;20011;-95
2022/02/10 20:40:05;;;;;;;13.80;4.72;;;;;;;;;;6226147;23;20012;-95
2022/02/10 20:42:32;;;;;;;;;;;10.20;79.50;;;;;;6252998;23;20008;-96
2022/02/10 20:44:59;;;;;;;5.95;3.13;;;;;;;;;;6252545;23;19930;-95
2022/02/10 20:47:26;;;;;;;8.43;4.18;;;;;;;;;;6227620;23;20012;-95
2022/02/10 20:49:52;;;;;;;;;;;10.30;80.00;;;;;;6225598;23;20066;-93
2022/02/10 20:52:18;;;;;;;14.65;7.32;;;;;;;;;;6251950;23;19907;-95
2022/02/10 20:54:46;;;;;;;18.77;7.10;;;;;;;;;;6224361;23;20046;-95
2022/02/10 20:57:12;;;;;;;17.40;5.50;;;;;;;;;;6251690;23;20011;-95
2022/02/10 20:59:41;;;;;;;15.82;8.18;;;;;;;;;;6252246;23;20012;-95
2022/02/10 21:02:11;;;;;;;18.23;5.38;;;;;;;;;;6252378;23;20031;-95
2022/02/10 21:04:52;;;;;;;22.88;9.20;;;;;;;;;;6253548;23;20024;-96
2022/02/10 21:07:31;;;;;;;13.32;6.68;;;;;;;;;;6253037;23;20004;-95
2022/02/10 21:10:01;;;;;;;28.77;12.05;;;;;;;;;;6253403;23;20004;-94
2022/02/10 21:12:30;;;;;;;26.20;9.38;;;;;;;;;;6253116;23;20004;-95
2022/02/10 21:14:56;;;;;;;19.38;7.68;;;;;;;;;;6252226;23;20079;-94
2022/02/10 21:17:26;;;;;;;12.02;6.32;;;;;;;;;;6225493;23;20004;-95
2022/02/10 21:19:58;;;;;;;10.07;5.70;;;;;;;;;;6251554;23;20002;-94
2022/02/10 21:22:24;;;;;;;10.55;6.18;;;;;;;;;;6225637;23;20000;-95
2022/02/10 21:24:56;;;;;;;15.13;5.93;;;;;;;;;;6252174;23;20501;-94
2022/02/10 21:27:30;;;;;;;28.98;12.23;;;;;;;;;;6253432;23;20024;-95
2022/02/10 21:30:02;;;;;;;22.73;12.07;;;;;;;;;;6255230;23;20000;-94
2022/02/10 21:32:33;;;;;;;26.25;12.23;;;;;;;;;;6254898;23;20012;-95
2022/02/10 21:37:46;;;;;;;14.25;5.40;;;;;;;;;;6228676;23;20038;-95
2022/02/10 21:54:38;;;;;;;14.20;6.28;;;;;;;;;;6189184;23;20012;-96
2022/02/10 22:10:47;;;;;;;9.10;3.53;;;;;;;;;;6191625;23;20009;-95
2022/02/10 22:18:47;;;;;;;8.45;4.97;;;;;;;;;;6251950;23;20019;-95
2022/02/10 22:21:19;;;;;;;8.10;5.68;;;;;;;;;;6252078;23;20012;-94
2022/02/10 22:23:47;;;;;;;5.68;3.20;;;;;;;;;;6252288;23;20008;-96
2022/02/10 22:26:24;;;;;;;6.78;2.72;;;;;;;;;;6225034;23;20027;-95
2022/02/10 22:29:03;;;;;;;6.00;4.07;;;;;;;;;;6252198;23;20030;-95
2022/02/10 22:36:28;;;;;;;16.83;5.15;;;;;;;;;;6251510;23;20019;-94
2022/02/10 22:39:00;;;;;;;16.55;8.10;;;;;;;;;;6225565;23;20004;-96
2022/02/10 22:41:26;;;;;;;11.93;8.32;;;;;;;;;;6251094;23;20012;-95
2022/02/10 22:43:52;;;;;;;28.15;8.07;;;;;;;;;;6225483;23;20482;-96
2022/02/10 22:46:19;;;;;;;18.42;7.43;;;;;;;;;;6251530;23;20019;-96
2022/02/10 22:48:46;;;;;;;11.80;6.63;;;;;;;;;;6224932;23;20008;-95
2022/02/10 22:51:13;;;;;;;11.20;6.40;;;;;;;;;;6225453;23;20012;-96
2022/02/10 22:53:39;;;;;;;10.13;5.60;;;;;;;;;;6225389;23;20057;-94
2022/02/10 22:56:09;;;;;;;16.85;6.45;;;;;;;;;;6251592;23;20027;-95
2022/02/10 22:58:39;;;;;;;20.30;5.68;;;;;;;;;;6264606;23;19991;-96
2022/02/10 23:01:09;;;;;;;11.75;5.75;;;;;;;;;;6250242;23;20027;-94
2022/02/10 23:03:39;;;;;;;7.25;3.45;;;;;;;;;;6251501;23;20000;-95
2022/02/10 23:06:08;;;;;;;13.75;4.65;;;;;;;;;;6253344;23;20451;-96
2022/02/10 23:08:34;;;;;;;14.00;4.75;;;;;;;;;;6250881;23;20004;-95
2022/02/10 23:11:01;;;;;;;13.45;7.00;;;;;;;;;;6250230;23;20410;-93
2022/02/10 23:13:31;;;;;;;15.70;6.90;;;;;;;;;;6223520;23;20330;-94
2022/02/10 23:16:01;;;;;;;14.80;8.60;;;;;;;;;;6250360;23;20031;-93
2022/02/10 23:18:30;;;;;;;14.18;5.88;;;;;;;;;;6250642;23;20079;-94
2022/02/10 23:20:57;;;;;;;17.40;8.60;;;;;;;;;;6250029;23;20016;-94
2022/02/10 23:23:25;;;;;;;17.80;6.00;;;;;;;;;;6250557;23;20004;-96
2022/02/10 23:25:52;;;;;;;14.23;7.93;;;;;;;;;;6249788;23;20024;-96
2022/02/10 23:28:19;;;;;;;19.55;6.93;;;;;;;;;;6223767;23;20000;-95
2022/02/10 23:30:46;;;;;;;22.42;7.97;;;;;;;;;;6223631;23;20043;-94
2022/02/10 23:33:24;;;;;;;20.92;8.45;;;;;;;;;;6250965;23;20031;-94
2022/02/10 23:38:51;;;;;;;12.90;6.35;;;;;;;;;;6251154;23;20332;-94
2022/02/10 23:43:47;;;;;;;19.92;6.05;;;;;;;;;;6250602;23;20004;-95
2022/02/10 23:46:14;;;;;;;10.38;6.03;;;;;;;;;;6250976;23;20008;-95
2022/02/10 23:48:40;;;;;;;13.43;6.65;;;;;;;;;;6251381;23;20000;-94
2022/02/10 23:51:07;;;;;;;13.73;6.53;;;;;;;;;;6225322;23;20087;-94
2022/02/10 23:53:33;;;;;;;11.43;6.68;;;;;;;;;;6251712;23;20359;-96
2022/02/10 23:56:02;;;;;;;19.05;7.30;;;;;;;;;;6252301;23;20008;-95
